Time;durP1;ratioP1;P1;durP2;ratioP2;P2;SDS_P1;SDS_P2;PMS_P1;PMS_P2;Temp;Humidity;BMP_temperature;BMP_pressure;BME280_temperature;BME280_humidity;BME280_pressure;Samples;Min_cycle;Max_cycle;Signal;HPM_P1;HPM_P2
2022/03/03 00:00:57;;;;;;;2.30;2.07;;;21.20;52.90;;;;;;5076113;28;20475;-85
2022/03/03 00:03:24;;;;;;;2.20;1.80;;;21.20;52.90;;;;;;5094454;28;20417;-85
2022/03/03 00:05:50;;;;;;;2.13;1.90;;;21.20;52.90;;;;;;5095122;28;20411;-85
2022/03/03 00:08:17;;;;;;;2.10;1.90;;;21.20;53.50;;;;;;5094672;28;20486;-85
2022/03/03 00:10:43;;;;;;;2.70;2.27;;;21.20;52.90;;;;;;5093409;28;20185;-85
2022/03/03 00:13:09;;;;;;;2.67;2.47;;;21.20;52.90;;;;;;5094573;28;20468;-85
2022/03/03 00:15:35;;;;;;;2.20;2.00;;;21.20;52.90;;;;;;5075898;28;20416;-85
2022/03/03 00:18:03;;;;;;;1.97;1.77;;;21.20;52.90;;;;;;5075949;28;20182;-85
2022/03/03 00:20:29;;;;;;;2.63;2.30;;;21.20;52.90;;;;;;5076498;28;20225;-85
2022/03/03 00:22:55;;;;;;;2.30;2.10;;;21.20;52.90;;;;;;5092987;28;20436;-85
2022/03/03 00:25:23;;;;;;;4.67;2.37;;;21.20;52.90;;;;;;5058830;28;20424;-84
2022/03/03 00:27:49;;;;;;;2.43;1.90;;;21.20;52.90;;;;;;5093667;28;20427;-85
2022/03/03 00:30:15;;;;;;;3.10;2.37;;;21.20;52.90;;;;;;5092771;28;20405;-85
2022/03/03 00:32:41;;;;;;;2.60;1.73;;;21.20;52.90;;;;;;5092614;28;20419;-85
2022/03/03 00:35:11;;;;;;;2.77;2.03;;;21.20;52.90;;;;;;5074609;28;20209;-85
2022/03/03 00:37:39;;;;;;;1.73;1.60;;;21.20;52.90;;;;;;5074991;28;20220;-85
2022/03/03 00:40:09;;;;;;;2.23;1.93;;;21.20;52.90;;;;;;5092189;28;20400;-85
2022/03/03 00:42:35;;;;;;;2.40;2.10;;;21.20;52.90;;;;;;5092214;28;20419;-85
2022/03/03 00:45:01;;;;;;;2.40;1.70;;;21.20;52.90;;;;;;5074014;28;20417;-85
2022/03/03 00:47:27;;;;;;;2.90;1.93;;;21.20;52.90;;;;;;5091872;28;20400;-85
2022/03/03 00:49:53;;;;;;;2.90;2.40;;;21.20;52.90;;;;;;5091936;28;20200;-85
2022/03/03 00:52:19;;;;;;;3.00;2.10;;;21.10;52.80;;;;;;5073957;28;20189;-85
2022/03/03 00:54:45;;;;;;;2.23;1.70;;;21.20;52.90;;;;;;5074920;28;20423;-85
2022/03/03 00:57:10;;;;;;;3.20;2.00;;;21.10;52.80;;;;;;5092221;28;20170;-85
2022/03/03 00:59:36;;;;;;;2.67;2.20;;;21.20;52.90;;;;;;5090993;28;20182;-85
2022/03/03 01:02:04;;;;;;;2.80;2.03;;;21.10;52.80;;;;;;5074900;28;20206;-85
2022/03/03 01:04:30;;;;;;;2.10;1.90;;;21.10;52.80;;;;;;5057031;28;20186;-85
2022/03/03 01:06:56;;;;;;;2.70;1.83;;;21.10;52.80;;;;;;5091173;28;20416;-85
2022/03/03 01:09:21;;;;;;;2.83;2.03;;;21.10;52.80;;;;;;5090776;28;20162;-85
2022/03/03 01:11:51;;;;;;;2.30;1.90;;;21.10;52.80;;;;;;5073319;28;20257;-85
2022/03/03 01:14:21;;;;;;;2.50;1.67;;;21.10;52.80;;;;;;5089901;28;20162;-85
2022/03/03 01:16:48;;;;;;;2.43;2.17;;;21.10;52.80;;;;;;5091676;28;20427;-85
2022/03/03 01:19:15;;;;;;;2.60;2.10;;;21.10;52.90;;;;;;5076113;28;20420;-85
2022/03/03 01:21:42;;;;;;;2.13;1.93;;;21.10;52.80;;;;;;5076019;28;20456;-85
2022/03/03 01:24:08;;;;;;;2.63;2.27;;;21.10;52.80;;;;;;5076149;28;20454;-85
2022/03/03 01:26:34;;;;;;;2.20;2.00;;;21.10;52.80;;;;;;5093204;28;20411;-85
2022/03/03 01:29:00;;;;;;;2.03;1.80;;;21.10;52.90;;;;;;5075673;28;20651;-85
2022/03/03 01:31:27;;;;;;;2.70;2.20;;;21.10;52.80;;;;;;5092798;28;20831;-85
2022/03/03 01:33:53;;;;;;;2.93;2.50;;;21.10;52.80;;;;;;5092948;28;20189;-85
2022/03/03 01:36:19;;;;;;;2.60;2.13;;;21.10;52.80;;;;;;5074794;28;20417;-86
2022/03/03 01:38:45;;;;;;;2.37;2.13;;;21.10;52.90;;;;;;5093554;28;20432;-85
2022/03/03 01:41:11;;;;;;;3.30;2.13;;;21.10;52.80;;;;;;5075288;28;20206;-86
2022/03/03 01:43:41;;;;;;;2.10;1.90;;;21.10;52.90;;;;;;5075482;28;20411;-85
2022/03/03 01:46:10;;;;;;;2.13;1.63;;;21.10;52.90;;;;;;5092897;28;20408;-85
2022/03/03 01:48:35;;;;;;;2.60;1.90;;;21.10;52.90;;;;;;5092848;28;20405;-85
2022/03/03 01:51:01;;;;;;;2.67;1.80;;;21.10;52.90;;;;;;5075458;28;20421;-85
2022/03/03 01:53:30;;;;;;;1.90;1.77;;;21.10;52.90;;;;;;5075528;28;20257;-85
2022/03/03 01:55:57;;;;;;;2.50;1.93;;;21.10;52.90;;;;;;5077889;28;20413;-85
2022/03/03 01:58:24;;;;;;;2.83;2.20;;;21.10;52.90;;;;;;5078936;28;20448;-85
2022/03/03 02:00:52;;;;;;;2.70;1.87;;;21.10;52.90;;;;;;5079842;28;20463;-85
2022/03/03 02:03:19;;;;;;;2.40;2.20;;;21.10;52.90;;;;;;5062897;28;20492;-85
2022/03/03 02:05:45;;;;;;;2.17;1.83;;;21.10;52.90;;;;;;5079199;28;20424;-85
2022/03/03 02:08:13;;;;;;;2.20;1.93;;;21.10;52.90;;;;;;5079507;28;20416;-85
2022/03/03 02:10:39;;;;;;;2.23;2.03;;;21.10;52.80;;;;;;5078882;28;20428;-85
2022/03/03 02:13:06;;;;;;;3.10;2.37;;;21.10;52.80;;;;;;5062641;28;20421;-85
2022/03/03 02:15:32;;;;;;;2.30;1.77;;;21.10;52.80;;;;;;5079318;28;20420;-85
2022/03/03 02:17:59;;;;;;;2.60;1.87;;;21.10;52.90;;;;;;5079431;28;20413;-85
2022/03/03 02:20:30;;;;;;;2.50;2.03;;;21.10;52.80;;;;;;5097040;28;20478;-85
2022/03/03 02:22:57;;;;;;;2.73;2.33;;;21.10;52.80;;;;;;5096741;28;20389;-85
2022/03/03 02:25:29;;;;;;;2.67;2.47;;;21.10;52.90;;;;;;5096455;28;20419;-85
2022/03/03 02:27:55;;;;;;;2.00;1.73;;;21.10;52.90;;;;;;5078353;28;20439;-86
2022/03/03 02:30:21;;;;;;;2.40;1.90;;;21.10;52.80;;;;;;5079227;28;20429;-85
2022/03/03 02:32:47;;;;;;;2.20;1.90;;;21.10;52.90;;;;;;5094178;28;20420;-85
2022/03/03 02:35:14;;;;;;;2.40;1.83;;;21.00;52.80;;;;;;5101992;28;20239;-85
2022/03/03 02:37:47;;;;;;;2.40;2.20;;;21.10;52.90;;;;;;5116667;28;20418;-84
2022/03/03 02:40:20;;;;;;;1.97;1.63;;;21.00;52.80;;;;;;5091674;28;20418;-84
2022/03/03 02:42:47;;;;;;;3.40;1.50;;;21.00;52.80;;;;;;5097585;28;20433;-84
2022/03/03 02:45:13;;;;;;;2.50;2.03;;;21.00;52.80;;;;;;5079463;28;20408;-84
2022/03/03 02:47:41;;;;;;;2.40;1.90;;;21.00;52.80;;;;;;5078799;28;20435;-84
2022/03/03 02:50:09;;;;;;;2.10;1.90;;;21.00;52.80;;;;;;5078596;28;20417;-84
2022/03/03 02:52:35;;;;;;;2.13;1.80;;;21.00;52.80;;;;;;5078695;28;20432;-85
2022/03/03 02:55:04;;;;;;;2.17;1.97;;;21.00;52.80;;;;;;5078813;28;20421;-84
2022/03/03 03:00:16;;;;;;;2.60;1.50;;;21.00;52.80;;;;;;5095761;28;20434;-85
2022/03/03 03:02:42;;;;;;;4.47;2.50;;;21.00;52.80;;;;;;5095834;28;20435;-85
2022/03/03 03:05:09;;;;;;;2.13;1.93;;;21.00;52.80;;;;;;5078369;28;20484;-84
2022/03/03 03:07:38;;;;;;;2.33;2.03;;;21.00;52.80;;;;;;5094046;28;20468;-85
2022/03/03 03:10:06;;;;;;;2.30;1.83;;;21.00;52.90;;;;;;5074741;28;20451;-85
2022/03/03 03:12:34;;;;;;;2.30;2.00;;;21.00;52.80;;;;;;5077523;28;20420;-85
2022/03/03 03:15:00;;;;;;;2.00;1.77;;;21.00;52.80;;;;;;5076702;28;20416;-85
2022/03/03 03:17:25;;;;;;;2.27;1.53;;;21.00;52.80;;;;;;5077564;28;20405;-85
2022/03/03 03:19:51;;;;;;;2.00;1.80;;;21.00;52.80;;;;;;5094635;28;20170;-85
2022/03/03 03:22:17;;;;;;;2.13;1.80;;;21.00;52.80;;;;;;5093312;28;20187;-85
2022/03/03 03:24:44;;;;;;;1.80;1.70;;;21.00;52.80;;;;;;5076960;28;20432;-85
2022/03/03 03:27:11;;;;;;;2.30;1.90;;;21.00;52.80;;;;;;5095859;28;20174;-85
2022/03/03 03:29:37;;;;;;;2.33;2.00;;;21.00;52.80;;;;;;5077824;28;20464;-85
2022/03/03 03:32:05;;;;;;;2.20;1.53;;;21.00;52.80;;;;;;5076563;28;20417;-84
2022/03/03 03:34:31;;;;;;;2.63;1.80;;;21.00;52.80;;;;;;5077431;28;20178;-85
2022/03/03 03:36:56;;;;;;;1.63;1.43;;;21.00;52.80;;;;;;5077136;28;20424;-85
2022/03/03 03:39:24;;;;;;;2.13;1.83;;;21.00;52.80;;;;;;5077622;28;20205;-85
2022/03/03 03:41:50;;;;;;;2.40;1.73;;;21.00;52.80;;;;;;5094177;28;20500;-85
2022/03/03 03:44:16;;;;;;;2.60;1.70;;;21.00;52.80;;;;;;5091883;28;20428;-85
2022/03/03 03:46:41;;;;;;;2.00;1.70;;;21.00;52.80;;;;;;5115218;28;20161;-85
2022/03/03 03:49:07;;;;;;;3.13;1.60;;;21.00;52.80;;;;;;5096989;28;20170;-84
2022/03/03 03:51:34;;;;;;;2.37;1.93;;;21.00;52.80;;;;;;5097621;28;20447;-85
2022/03/03 03:53:59;;;;;;;2.10;1.90;;;21.00;52.90;;;;;;5080405;28;20427;-85
2022/03/03 03:56:27;;;;;;;2.50;2.30;;;21.00;52.80;;;;;;5114327;28;20416;-85
2022/03/03 03:58:53;;;;;;;2.23;1.73;;;21.00;52.80;;;;;;5096430;28;20173;-85
2022/03/03 04:01:18;;;;;;;1.60;1.50;;;21.00;52.80;;;;;;5096712;28;20502;-85
2022/03/03 04:03:47;;;;;;;2.63;1.90;;;21.00;52.80;;;;;;5096623;28;20408;-85
2022/03/03 04:06:13;;;;;;;1.90;1.57;;;21.00;52.80;;;;;;5097006;28;20177;-85
2022/03/03 04:08:41;;;;;;;2.07;1.60;;;21.00;52.80;;;;;;5114835;28;20429;-85
2022/03/03 04:11:07;;;;;;;2.10;1.90;;;21.00;52.80;;;;;;5080306;28;20455;-85
2022/03/03 04:13:35;;;;;;;2.00;1.67;;;21.00;52.80;;;;;;5097013;28;20914;-85
2022/03/03 04:16:01;;;;;;;3.33;2.07;;;21.00;52.80;;;;;;5097036;28;20449;-85
2022/03/03 04:18:27;;;;;;;2.57;2.00;;;21.00;52.40;;;;;;5095106;28;20416;-85
2022/03/03 04:20:53;;;;;;;1.87;1.67;;;21.00;52.80;;;;;;5078392;28;20213;-85
2022/03/03 04:23:19;;;;;;;2.67;1.73;;;21.00;52.80;;;;;;5113553;28;20408;-85
2022/03/03 04:25:45;;;;;;;2.00;1.50;;;21.00;52.80;;;;;;5113841;28;20173;-85
2022/03/03 04:28:11;;;;;;;2.17;1.80;;;21.00;52.80;;;;;;5114765;28;20249;-85
2022/03/03 04:30:37;;;;;;;1.90;1.60;;;21.00;52.80;;;;;;5096361;28;20426;-85
2022/03/03 04:33:03;;;;;;;1.77;1.67;;;21.00;52.90;;;;;;5096029;28;20195;-85
2022/03/03 04:35:29;;;;;;;1.70;1.60;;;21.00;52.80;;;;;;5113603;28;20166;-85
2022/03/03 04:37:57;;;;;;;4.10;1.83;;;21.00;52.80;;;;;;5096250;28;20186;-85
2022/03/03 04:40:25;;;;;;;2.73;2.00;;;21.00;52.80;;;;;;5079804;28;20631;-85
2022/03/03 04:42:51;;;;;;;2.27;2.07;;;21.00;52.80;;;;;;5113886;28;20406;-85
2022/03/03 04:45:18;;;;;;;2.80;1.90;;;21.00;52.80;;;;;;5095494;28;20407;-85
2022/03/03 04:47:44;;;;;;;1.77;1.43;;;21.00;52.80;;;;;;5079327;28;20178;-85
2022/03/03 04:50:10;;;;;;;2.50;1.70;;;21.00;52.80;;;;;;5079407;28;20411;-85
2022/03/03 04:52:36;;;;;;;2.27;1.90;;;21.00;52.80;;;;;;5113489;28;20411;-85
2022/03/03 04:55:04;;;;;;;2.37;1.80;;;21.00;52.80;;;;;;5113437;28;20414;-85
2022/03/03 04:57:31;;;;;;;1.77;1.67;;;21.00;52.80;;;;;;5113902;28;20435;-85
2022/03/03 05:03:20;;;;;;;2.17;1.40;;;21.00;52.80;;;;;;5113065;28;20449;-85
2022/03/03 05:05:45;;;;;;;2.27;1.87;;;21.00;52.80;;;;;;5095301;28;20434;-84
2022/03/03 05:08:12;;;;;;;2.27;1.80;;;21.00;52.80;;;;;;5094935;28;20475;-85
2022/03/03 05:10:39;;;;;;;2.90;2.00;;;21.00;52.80;;;;;;5113392;28;20709;-86
2022/03/03 05:13:13;;;;;;;2.40;1.70;;;20.90;52.70;;;;;;5095733;28;20411;-85
2022/03/03 05:15:39;;;;;;;2.10;1.63;;;21.00;52.80;;;;;;5113200;28;20149;-85
2022/03/03 05:18:05;;;;;;;2.40;1.90;;;21.00;52.80;;;;;;5095283;28;20426;-85
2022/03/03 05:20:31;;;;;;;2.20;2.00;;;20.90;52.70;;;;;;5113053;28;20241;-86
2022/03/03 05:22:56;;;;;;;2.43;2.10;;;20.90;52.70;;;;;;5081542;28;20421;-85
2022/03/03 05:25:22;;;;;;;2.00;1.80;;;20.90;52.70;;;;;;5092167;28;20424;-85
2022/03/03 05:27:48;;;;;;;1.93;1.70;;;20.90;52.70;;;;;;5073937;28;20189;-85
2022/03/03 05:30:14;;;;;;;2.13;1.77;;;20.90;52.80;;;;;;5082735;28;20242;-85
2022/03/03 05:32:41;;;;;;;2.23;1.97;;;20.90;52.80;;;;;;5095223;28;20177;-85
2022/03/03 05:35:07;;;;;;;2.60;2.20;;;20.90;52.80;;;;;;5095000;28;20186;-85
2022/03/03 05:37:34;;;;;;;2.80;1.70;;;20.90;52.80;;;;;;5094225;28;20450;-85
2022/03/03 05:40:01;;;;;;;2.27;2.07;;;20.90;52.80;;;;;;5063360;28;20420;-85
2022/03/03 05:42:27;;;;;;;2.80;1.80;;;20.90;52.80;;;;;;5058182;28;20468;-85
2022/03/03 05:44:53;;;;;;;2.40;1.90;;;20.90;52.80;;;;;;5074726;28;20454;-86
2022/03/03 05:47:19;;;;;;;2.50;2.00;;;20.90;52.80;;;;;;5075290;28;20416;-85
2022/03/03 05:49:48;;;;;;;2.30;2.10;;;20.90;52.80;;;;;;5074573;28;20427;-86
2022/03/03 05:52:17;;;;;;;2.00;1.67;;;20.90;52.90;;;;;;5105039;28;20420;-86
2022/03/03 05:54:43;;;;;;;2.47;2.00;;;20.90;52.90;;;;;;5093119;28;20427;-86
2022/03/03 05:57:17;;;;;;;1.60;1.50;;;20.90;52.90;;;;;;5112080;28;20817;-86
2022/03/03 05:59:45;;;;;;;1.83;1.70;;;20.90;52.90;;;;;;5111921;28;20406;-86
2022/03/03 06:02:11;;;;;;;1.93;1.70;;;20.90;52.90;;;;;;5111380;28;20455;-86
2022/03/03 06:04:39;;;;;;;2.10;1.90;;;20.90;52.90;;;;;;5112157;28;20458;-86
2022/03/03 06:07:09;;;;;;;2.57;1.93;;;20.90;52.90;;;;;;5093389;28;20423;-84
2022/03/03 06:09:36;;;;;;;2.07;1.50;;;20.90;52.90;;;;;;5111914;28;20465;-85
2022/03/03 06:12:18;;;;;;;2.17;1.80;;;20.90;52.90;;;;;;5094661;28;20451;-85
2022/03/03 06:14:54;;;;;;;1.90;1.40;;;20.90;52.90;;;;;;5094769;28;20971;-85
2022/03/03 06:17:24;;;;;;;2.30;1.83;;;20.90;53.40;;;;;;5093716;28;20947;-85
2022/03/03 06:19:55;;;;;;;2.00;1.80;;;20.90;52.90;;;;;;5094385;28;20412;-85
2022/03/03 06:22:22;;;;;;;2.53;2.13;;;21.00;53.00;;;;;;5094772;28;20452;-85
2022/03/03 06:24:49;;;;;;;2.03;1.60;;;21.00;53.00;;;;;;5111855;28;20408;-85
2022/03/03 06:27:15;;;;;;;2.27;2.07;;;21.00;53.00;;;;;;5093176;28;20506;-86
2022/03/03 06:29:41;;;;;;;2.40;1.77;;;21.00;52.90;;;;;;5076409;28;20510;-85
2022/03/03 06:32:07;;;;;;;1.80;1.60;;;21.00;52.90;;;;;;5093550;28;20467;-85
2022/03/03 06:34:33;;;;;;;2.10;1.80;;;21.00;52.90;;;;;;5092566;28;20205;-87
2022/03/03 06:36:59;;;;;;;2.00;1.77;;;21.00;52.90;;;;;;5108089;28;20486;-87
2022/03/03 06:39:26;;;;;;;1.70;1.60;;;21.00;52.90;;;;;;5109569;28;20192;-86
2022/03/03 06:41:52;;;;;;;2.90;2.30;;;21.00;52.90;;;;;;5092595;28;20213;-86
2022/03/03 06:47:56;;;;;;;2.93;2.40;;;21.00;52.90;;;;;;5114044;28;20528;-85
2022/03/03 06:50:22;;;;;;;2.80;2.57;;;21.00;52.90;;;;;;5095149;28;20407;-85
2022/03/03 06:52:50;;;;;;;2.93;1.90;;;21.00;52.90;;;;;;5113118;28;20415;-85
2022/03/03 06:55:20;;;;;;;2.83;2.40;;;21.00;52.90;;;;;;5078331;28;20420;-84
2022/03/03 06:57:52;;;;;;;2.60;1.97;;;21.10;53.00;;;;;;5112920;28;20403;-84
2022/03/03 07:00:28;;;;;;;2.40;2.20;;;21.10;53.00;;;;;;5113247;28;20411;-85
2022/03/03 07:02:55;;;;;;;2.60;2.40;;;21.10;53.00;;;;;;5112322;28;20434;-85
2022/03/03 07:05:22;;;;;;;2.70;2.43;;;21.10;53.00;;;;;;5078551;28;20434;-85
2022/03/03 07:07:54;;;;;;;3.17;2.80;;;21.10;53.00;;;;;;5113035;28;20415;-85
2022/03/03 07:10:25;;;;;;;2.77;2.40;;;21.20;53.10;;;;;;5094976;28;20427;-86
2022/03/03 07:12:57;;;;;;;2.43;2.23;;;21.20;53.00;;;;;;5113708;28;20388;-86
2022/03/03 07:15:25;;;;;;;2.50;2.30;;;21.20;53.00;;;;;;5113743;28;20420;-86
2022/03/03 07:17:56;;;;;;;2.30;2.10;;;21.20;53.00;;;;;;5096051;28;20437;-86
2022/03/03 07:20:50;;;;;;;2.63;2.43;;;21.20;53.00;;;;;;5095729;28;20411;-86
2022/03/03 07:23:43;;;;;;;2.67;2.43;;;21.20;53.00;;;;;;5095429;28;20483;-86
2022/03/03 07:26:13;;;;;;;2.50;2.30;;;21.20;53.00;;;;;;5095468;28;20407;-85
2022/03/03 07:28:46;;;;;;;2.63;2.43;;;21.20;53.00;;;;;;5095802;28;20423;-85
2022/03/03 07:31:16;;;;;;;3.10;2.10;;;21.20;53.00;;;;;;5112635;28;20878;-86
2022/03/03 07:33:55;;;;;;;2.40;1.90;;;21.20;53.00;;;;;;5093763;28;20416;-86
2022/03/03 07:36:26;;;;;;;3.30;2.37;;;21.30;53.10;;;;;;5094862;28;20410;-88
2022/03/03 07:38:57;;;;;;;2.43;2.00;;;21.20;53.00;;;;;;5094421;28;20470;-86
2022/03/03 07:41:25;;;;;;;2.43;2.00;;;21.20;53.00;;;;;;5093155;28;20456;-88
2022/03/03 07:43:52;;;;;;;2.70;2.20;;;21.30;53.10;;;;;;5091888;28;20420;-89
2022/03/03 07:46:18;;;;;;;3.17;2.57;;;21.30;53.10;;;;;;5093972;28;20403;-87
2022/03/03 07:49:09;;;;;;;3.47;2.57;;;21.30;53.00;;;;;;5095237;28;20480;-87
2022/03/03 07:51:39;;;;;;;2.80;2.43;;;21.30;53.00;;;;;;5094573;28;20408;-87
2022/03/03 07:54:05;;;;;;;5.27;2.40;;;21.30;53.00;;;;;;5093367;28;20454;-87
2022/03/03 07:56:40;;;;;;;4.33;2.70;;;21.30;52.90;;;;;;5094209;28;20481;-87
2022/03/03 07:59:11;;;;;;;5.57;2.80;;;21.30;52.90;;;;;;5094288;28;20180;-87
2022/03/03 08:01:38;;;;;;;3.10;2.37;;;21.30;52.90;;;;;;5094913;28;20493;-87
2022/03/03 08:04:08;;;;;;;4.03;2.67;;;21.40;53.00;;;;;;5094431;28;20464;-87
2022/03/03 08:06:36;;;;;;;3.90;2.80;;;21.40;53.00;;;;;;5095138;28;20477;-87
2022/03/03 08:09:13;;;;;;;3.37;2.80;;;21.40;53.00;;;;;;5094566;28;20420;-87
2022/03/03 08:11:55;;;;;;;3.80;2.70;;;21.40;53.00;;;;;;5094407;28;20415;-87
2022/03/03 08:14:33;;;;;;;3.87;2.97;;;21.40;53.00;;;;;;5094054;28;20410;-87
2022/03/03 08:17:09;;;;;;;;;;;;;;;;;;;;;
2022/03/03 08:19:44;;;;;;;5.00;3.30;;;21.40;52.90;;;;;;5112833;28;20435;-87
2022/03/03 08:22:13;;;;;;;3.40;3.07;;;21.40;52.90;;;;;;5094079;28;20447;-87
2022/03/03 08:24:56;;;;;;;4.90;3.90;;;21.50;53.00;;;;;;5094269;28;20422;-87
2022/03/03 08:27:29;;;;;;;4.00;3.27;;;21.40;52.90;;;;;;5095674;28;20413;-88
2022/03/03 08:30:06;;;;;;;8.00;3.53;;;21.50;53.00;;;;;;5089548;28;20404;-88
2022/03/03 08:32:42;;;;;;;5.37;3.00;;;21.50;53.00;;;;;;5091447;28;20487;-88
2022/03/03 08:35:18;;;;;;;3.87;3.33;;;21.50;53.00;;;;;;5091266;28;20404;-88
2022/03/03 08:37:59;;;;;;;4.43;3.83;;;21.50;53.00;;;;;;5091252;28;20809;-89
2022/03/03 08:40:25;;;;;;;4.50;3.60;;;21.50;53.00;;;;;;5091293;28;20404;-88
2022/03/03 08:42:56;;;;;;;4.00;3.43;;;21.50;53.00;;;;;;5091029;28;20561;-89
2022/03/03 08:45:52;;;;;;;5.00;3.50;;;21.50;53.00;;;;;;5091336;28;20415;-88
2022/03/03 08:48:32;;;;;;;5.43;4.30;;;21.50;53.00;;;;;;5091043;28;20885;-88
2022/03/03 08:51:03;;;;;;;4.60;3.80;;;21.60;53.10;;;;;;5108994;28;20387;-89
2022/03/03 08:53:32;;;;;;;5.27;3.63;;;21.60;53.10;;;;;;5090339;28;20472;-89
2022/03/03 08:55:58;;;;;;;4.17;3.53;;;21.60;53.10;;;;;;5090778;28;20423;-89
2022/03/03 08:58:27;;;;;;;3.93;3.53;;;21.60;53.10;;;;;;5092079;28;20412;-89
2022/03/03 09:00:59;;;;;;;4.30;3.53;;;21.60;53.10;;;;;;5090738;28;20462;-89
2022/03/03 09:03:45;;;;;;;5.33;3.27;;;21.60;53.10;;;;;;5090316;28;20459;-89
2022/03/03 09:06:33;;;;;;;4.87;3.90;;;21.60;53.10;;;;;;5108136;28;20404;-88
2022/03/03 09:08:59;;;;;;;5.07;3.83;;;21.60;53.10;;;;;;5109052;28;20411;-87
2022/03/03 09:11:32;;;;;;;4.93;3.40;;;21.60;53.10;;;;;;5111734;28;20437;-86
2022/03/03 09:14:01;;;;;;;5.37;3.53;;;21.60;53.10;;;;;;5093217;28;20419;-86
2022/03/03 09:16:27;;;;;;;5.23;3.73;;;21.60;53.20;;;;;;5092910;28;20408;-86
2022/03/03 09:19:00;;;;;;;4.07;3.30;;;21.60;53.20;;;;;;5094045;28;20435;-85
2022/03/03 09:21:29;;;;;;;4.77;3.47;;;21.60;53.20;;;;;;5093769;28;20470;-85
2022/03/03 09:24:08;;;;;;;3.87;3.07;;;21.70;53.20;;;;;;5093838;28;20446;-85
2022/03/03 09:26:42;;;;;;;4.70;4.20;;;21.70;53.20;;;;;;5110491;28;20391;-85
2022/03/03 09:29:08;;;;;;;4.40;4.00;;;21.70;53.20;;;;;;5091730;28;20430;-88
2022/03/03 09:31:34;;;;;;;4.20;3.80;;;21.70;53.20;;;;;;5091396;28;20416;-89
2022/03/03 09:34:06;;;;;;;6.13;3.70;;;21.70;53.30;;;;;;5092554;28;20269;-87
2022/03/03 09:37:07;;;;;;;8.93;3.50;;;21.70;53.20;;;;;;5110204;28;20391;-87
2022/03/03 09:42:21;;;;;;;4.00;3.10;;;21.70;53.20;;;;;;5109810;28;20451;-87
2022/03/03 09:44:47;;;;;;;5.33;3.90;;;21.70;53.20;;;;;;5092370;28;20448;-87
2022/03/03 09:47:16;;;;;;;5.83;3.30;;;21.70;53.20;;;;;;5091239;28;20507;-87
2022/03/03 09:49:44;;;;;;;4.93;3.57;;;21.70;53.10;;;;;;5092116;28;20624;-87
2022/03/03 09:52:14;;;;;;;4.70;3.37;;;21.70;53.10;;;;;;5110599;28;20917;-87
2022/03/03 09:54:57;;;;;;;4.57;3.77;;;21.70;53.10;;;;;;5092117;28;20420;-87
2022/03/03 09:57:26;;;;;;;4.80;3.60;;;21.80;53.20;;;;;;5092581;28;20443;-87
2022/03/03 09:59:56;;;;;;;4.60;3.80;;;21.70;53.10;;;;;;5111220;28;20403;-87
2022/03/03 10:02:26;;;;;;;5.30;4.30;;;21.70;53.10;;;;;;5110472;28;20473;-90
2022/03/03 10:04:57;;;;;;;7.73;3.70;;;21.70;53.10;;;;;;5092237;28;20468;-87
2022/03/03 10:07:26;;;;;;;5.73;4.43;;;21.80;53.20;;;;;;5092663;28;20419;-86
2022/03/03 10:10:10;;;;;;;4.70;3.80;;;21.80;53.10;;;;;;5093764;28;20450;-86
2022/03/03 10:12:45;;;;;;;4.50;3.80;;;21.80;53.20;;;;;;5110884;28;20387;-86
2022/03/03 10:15:15;;;;;;;5.00;3.80;;;21.80;53.20;;;;;;5110895;28;20415;-86
2022/03/03 10:17:41;;;;;;;8.67;4.10;;;21.70;53.10;;;;;;5095030;28;20416;-87
2022/03/03 10:20:07;;;;;;;4.83;3.90;;;21.70;53.10;;;;;;5096828;28;20411;-87
2022/03/03 10:22:45;;;;;;;5.13;3.90;;;21.70;53.10;;;;;;5114832;28;20463;-87
2022/03/03 10:25:14;;;;;;;5.50;4.03;;;21.80;53.10;;;;;;5114699;28;20488;-87
2022/03/03 10:27:40;;;;;;;6.23;3.40;;;21.70;53.10;;;;;;5096896;28;20407;-86
2022/03/03 10:30:08;;;;;;;6.33;3.97;;;21.70;53.10;;;;;;5096936;28;20417;-86
2022/03/03 10:32:38;;;;;;;5.40;4.00;;;21.80;53.20;;;;;;5096535;28;20475;-86
2022/03/03 10:35:16;;;;;;;4.90;4.30;;;21.80;53.10;;;;;;5096584;28;20426;-86
2022/03/03 10:37:43;;;;;;;5.13;3.73;;;21.80;53.10;;;;;;5114732;28;20429;-87
2022/03/03 10:40:17;;;;;;;5.83;4.60;;;21.70;53.10;;;;;;5114431;28;20451;-87
2022/03/03 10:42:48;;;;;;;4.90;3.60;;;21.70;53.10;;;;;;5096864;28;20426;-87
2022/03/03 10:45:19;;;;;;;4.90;3.53;;;21.70;53.10;;;;;;5096660;28;20407;-86
2022/03/03 10:48:03;;;;;;;4.40;3.70;;;21.70;53.10;;;;;;5080514;28;20471;-87
2022/03/03 10:50:49;;;;;;;5.27;4.10;;;21.80;53.20;;;;;;5114544;28;20383;-87
2022/03/03 10:53:19;;;;;;;4.20;3.30;;;21.70;53.10;;;;;;5097003;28;20402;-86
2022/03/03 10:56:04;;;;;;;4.77;3.80;;;21.70;53.10;;;;;;5096879;28;20423;-87
2022/03/03 10:58:44;;;;;;;4.03;2.90;;;21.70;53.10;;;;;;5114725;28;20421;-86
2022/03/03 11:01:11;;;;;;;3.90;3.50;;;21.70;53.10;;;;;;5096106;28;20508;-86
2022/03/03 11:03:39;;;;;;;6.30;4.00;;;21.70;53.10;;;;;;5096120;28;20415;-87
2022/03/03 11:06:06;;;;;;;5.80;3.63;;;21.70;53.20;;;;;;5097233;28;20419;-86
2022/03/03 11:08:34;;;;;;;9.47;3.53;;;21.70;53.10;;;;;;5096370;28;20408;-86
2022/03/03 11:11:04;;;;;;;5.20;3.30;;;21.70;53.10;;;;;;5114001;28;20464;-87
2022/03/03 11:13:30;;;;;;;4.80;3.47;;;21.70;53.10;;;;;;5095937;28;20495;-86
2022/03/03 11:15:59;;;;;;;4.83;3.77;;;21.60;53.10;;;;;;5079100;28;20424;-87
2022/03/03 11:18:25;;;;;;;3.57;3.20;;;21.70;53.20;;;;;;5096518;28;20427;-87
2022/03/03 11:20:52;;;;;;;4.57;3.60;;;21.70;53.20;;;;;;5096080;28;20476;-87
2022/03/03 11:23:18;;;;;;;4.23;3.07;;;21.70;53.20;;;;;;5113812;28;20400;-86
2022/03/03 11:25:49;;;;;;;4.70;3.30;;;21.60;53.10;;;;;;5112437;28;20422;-88
2022/03/03 11:28:15;;;;;;;4.07;3.50;;;21.60;53.10;;;;;;5075333;28;20489;-86
2022/03/03 11:30:45;;;;;;;4.73;3.43;;;21.60;53.10;;;;;;5091117;28;20443;-86
2022/03/03 11:33:26;;;;;;;4.43;3.70;;;21.60;53.10;;;;;;5091637;28;20416;-87
2022/03/03 11:35:58;;;;;;;4.10;3.60;;;21.60;53.10;;;;;;5113215;28;20392;-87
2022/03/03 11:38:45;;;;;;;4.47;3.50;;;21.60;53.10;;;;;;5080669;28;20736;-87
2022/03/03 11:41:12;;;;;;;4.30;3.50;;;21.60;53.20;;;;;;5074122;28;20798;-86
2022/03/03 11:44:00;;;;;;;4.93;3.30;;;21.60;53.20;;;;;;5074006;28;20487;-86
2022/03/03 11:46:45;;;;;;;4.67;2.90;;;21.60;53.20;;;;;;5094998;28;20403;-86
2022/03/03 11:49:23;;;;;;;3.70;3.40;;;21.60;53.20;;;;;;5112080;28;20395;-87
2022/03/03 11:52:11;;;;;;;4.97;2.90;;;21.60;53.20;;;;;;5113463;28;20392;-86
2022/03/03 11:54:39;;;;;;;5.40;3.50;;;21.60;53.20;;;;;;5095269;28;20388;-86
2022/03/03 11:57:04;;;;;;;3.70;3.00;;;21.60;53.20;;;;;;5091944;28;20408;-86
2022/03/03 11:59:45;;;;;;;4.10;3.20;;;21.60;53.20;;;;;;5090790;28;20439;-86
2022/03/03 12:02:15;;;;;;;3.77;3.37;;;21.60;53.20;;;;;;5086501;28;20203;-86
2022/03/03 12:04:43;;;;;;;4.50;4.10;;;21.60;53.10;;;;;;5111994;28;20428;-86
2022/03/03 12:07:29;;;;;;;3.50;2.90;;;21.60;53.10;;;;;;5094049;28;20408;-86
2022/03/03 12:09:58;;;;;;;4.53;3.00;;;21.60;53.10;;;;;;5077819;28;20415;-85
2022/03/03 12:12:29;;;;;;;4.80;3.00;;;21.60;53.10;;;;;;5093024;28;20422;-87
2022/03/03 12:15:04;;;;;;;3.80;3.27;;;21.60;53.10;;;;;;5093916;28;20429;-87
2022/03/03 12:17:43;;;;;;;4.63;3.13;;;21.60;53.10;;;;;;5094554;28;20422;-86
2022/03/03 12:20:24;;;;;;;4.33;3.50;;;21.60;53.10;;;;;;5112080;28;20415;-87
2022/03/03 12:23:02;;;;;;;5.27;3.07;;;21.70;53.20;;;;;;5093665;28;20439;-86
2022/03/03 12:25:50;;;;;;;4.40;3.43;;;21.60;53.10;;;;;;5093657;28;20412;-86
2022/03/03 12:28:35;;;;;;;4.20;3.13;;;21.60;53.10;;;;;;5094496;28;20408;-86
2022/03/03 12:31:19;;;;;;;3.37;3.00;;;21.60;53.10;;;;;;5094029;28;20453;-86
2022/03/03 12:34:03;;;;;;;3.40;2.93;;;21.60;53.10;;;;;;5077173;28;20407;-86
2022/03/03 12:36:37;;;;;;;3.97;3.00;;;21.60;53.10;;;;;;5095218;28;20430;-86
2022/03/03 12:39:07;;;;;;;3.70;3.33;;;21.60;53.10;;;;;;5112003;28;20416;-87
2022/03/03 12:41:35;;;;;;;3.53;3.00;;;21.60;53.20;;;;;;5092896;28;20475;-87
2022/03/03 12:44:13;;;;;;;4.27;3.20;;;21.60;53.20;;;;;;5093363;28;20420;-87
2022/03/03 12:46:40;;;;;;;4.63;3.60;;;21.60;53.20;;;;;;5093265;28;20408;-86
2022/03/03 12:49:08;;;;;;;6.43;3.97;;;21.60;53.20;;;;;;5094055;28;20412;-86
2022/03/03 12:51:40;;;;;;;3.33;3.03;;;21.60;53.20;;;;;;5111550;28;20442;-87
2022/03/03 12:54:06;;;;;;;3.70;3.07;;;21.60;53.20;;;;;;5085737;28;20425;-86
2022/03/03 12:56:34;;;;;;;5.07;3.17;;;21.60;53.20;;;;;;5093748;28;20423;-87
2022/03/03 12:59:06;;;;;;;4.57;3.33;;;21.60;53.20;;;;;;5093549;28;20442;-87
2022/03/03 13:01:33;;;;;;;5.60;3.60;;;21.60;53.20;;;;;;5093594;28;20447;-86
2022/03/03 13:04:03;;;;;;;2.83;2.63;;;21.60;53.20;;;;;;5092508;28;20438;-93
2022/03/03 13:06:31;;;;;;;3.43;2.90;;;21.60;53.20;;;;;;5093137;28;20400;-86
2022/03/03 13:08:59;;;;;;;3.60;2.83;;;21.60;53.20;;;;;;5092179;28;20963;-85
2022/03/03 13:11:28;;;;;;;4.00;3.03;;;21.60;53.20;;;;;;5093033;28;20933;-85
2022/03/03 13:14:02;;;;;;;3.60;3.27;;;21.60;53.20;;;;;;5076616;28;20419;-87